sensor_id;sensor_type;location;lat;lon;timestamp;temperature;humidity
47174;DHT22;36730;49.036;9.094;2023-04-03T00:00:52;21.30;45.90
47174;DHT22;36730;49.036;9.094;2023-04-03T00:03:18;21.30;45.60
47174;DHT22;36730;49.036;9.094;2023-04-03T00:05:43;21.30;45.70
47174;DHT22;36730;49.036;9.094;2023-04-03T00:08:09;21.30;45.60
47174;DHT22;36730;49.036;9.094;2023-04-03T00:10:35;21.40;45.50
47174;DHT22;36730;49.036;9.094;2023-04-03T00:13:01;21.30;45.50
47174;DHT22;36730;49.036;9.094;2023-04-03T00:15:27;21.30;45.50
47174;DHT22;36730;49.036;9.094;2023-04-03T00:17:52;21.30;45.50
47174;DHT22;36730;49.036;9.094;2023-04-03T00:20:18;21.30;45.50
47174;DHT22;36730;49.036;9.094;2023-04-03T00:22:43;21.30;45.50
47174;DHT22;36730;49.036;9.094;2023-04-03T00:25:09;21.30;45.40
47174;DHT22;36730;49.036;9.094;2023-04-03T00:27:36;21.30;45.40
47174;DHT22;36730;49.036;9.094;2023-04-03T00:30:02;21.30;45.50
47174;DHT22;36730;49.036;9.094;2023-04-03T00:32:27;21.30;45.30
47174;DHT22;36730;49.036;9.094;2023-04-03T00:34:53;21.30;46.00
47174;DHT22;36730;49.036;9.094;2023-04-03T00:37:18;21.20;45.30
47174;DHT22;36730;49.036;9.094;2023-04-03T00:39:44;21.30;45.30
47174;DHT22;36730;49.036;9.094;2023-04-03T00:42:10;21.20;45.20
47174;DHT22;36730;49.036;9.094;2023-04-03T00:47:02;21.20;45.20
47174;DHT22;36730;49.036;9.094;2023-04-03T00:49:28;21.20;45.30
47174;DHT22;36730;49.036;9.094;2023-04-03T00:51:54;21.20;45.30
47174;DHT22;36730;49.036;9.094;2023-04-03T00:54:20;21.20;45.30
47174;DHT22;36730;49.036;9.094;2023-04-03T00:56:46;21.20;45.30
47174;DHT22;36730;49.036;9.094;2023-04-03T00:59:13;21.20;45.30
47174;DHT22;36730;49.036;9.094;2023-04-03T01:01:40;21.20;45.20
47174;DHT22;36730;49.036;9.094;2023-04-03T01:04:05;21.20;45.10
47174;DHT22;36730;49.036;9.094;2023-04-03T01:06:32;21.20;45.10
47174;DHT22;36730;49.036;9.094;2023-04-03T01:08:59;21.20;45.10
47174;DHT22;36730;49.036;9.094;2023-04-03T01:11:25;21.20;45.00
47174;DHT22;36730;49.036;9.094;2023-04-03T01:13:51;21.20;45.10
47174;DHT22;36730;49.036;9.094;2023-04-03T01:16:16;21.20;45.00
47174;DHT22;36730;49.036;9.094;2023-04-03T01:18:42;21.20;45.10
47174;DHT22;36730;49.036;9.094;2023-04-03T01:21:28;21.20;45.10
47174;DHT22;36730;49.036;9.094;2023-04-03T01:24:09;21.20;45.10
47174;DHT22;36730;49.036;9.094;2023-04-03T01:26:36;21.10;45.00
47174;DHT22;36730;49.036;9.094;2023-04-03T01:29:03;21.10;45.00
47174;DHT22;36730;49.036;9.094;2023-04-03T01:31:42;21.10;45.00
47174;DHT22;36730;49.036;9.094;2023-04-03T01:34:08;21.20;45.10
47174;DHT22;36730;49.036;9.094;2023-04-03T01:36:34;21.10;45.00
47174;DHT22;36730;49.036;9.094;2023-04-03T01:38:59;21.10;45.00
47174;DHT22;36730;49.036;9.094;2023-04-03T01:41:25;21.10;45.60
47174;DHT22;36730;49.036;9.094;2023-04-03T01:43:51;21.10;44.90
47174;DHT22;36730;49.036;9.094;2023-04-03T01:46:17;21.10;44.90
47174;DHT22;36730;49.036;9.094;2023-04-03T01:48:43;21.10;45.00
47174;DHT22;36730;49.036;9.094;2023-04-03T01:51:09;21.10;45.00
47174;DHT22;36730;49.036;9.094;2023-04-03T01:53:34;21.10;45.00
47174;DHT22;36730;49.036;9.094;2023-04-03T01:55:59;21.10;44.90
47174;DHT22;36730;49.036;9.094;2023-04-03T01:58:25;21.00;44.90
47174;DHT22;36730;49.036;9.094;2023-04-03T02:00:51;21.10;45.00
47174;DHT22;36730;49.036;9.094;2023-04-03T02:03:16;21.10;44.90
47174;DHT22;36730;49.036;9.094;2023-04-03T02:05:42;21.10;44.80
47174;DHT22;36730;49.036;9.094;2023-04-03T02:08:07;21.00;44.80
47174;DHT22;36730;49.036;9.094;2023-04-03T02:10:33;21.00;44.80
47174;DHT22;36730;49.036;9.094;2023-04-03T02:12:58;21.00;44.70
47174;DHT22;36730;49.036;9.094;2023-04-03T02:15:24;21.00;44.70
47174;DHT22;36730;49.036;9.094;2023-04-03T02:17:49;21.10;44.80
47174;DHT22;36730;49.036;9.094;2023-04-03T02:20:15;21.00;45.50
47174;DHT22;36730;49.036;9.094;2023-04-03T02:22:40;21.00;45.10
47174;DHT22;36730;49.036;9.094;2023-04-03T02:25:06;21.00;45.00
47174;DHT22;36730;49.036;9.094;2023-04-03T02:27:32;21.00;44.90
47174;DHT22;36730;49.036;9.094;2023-04-03T02:29:57;21.00;44.80
47174;DHT22;36730;49.036;9.094;2023-04-03T02:32:22;21.00;44.80
47174;DHT22;36730;49.036;9.094;2023-04-03T02:34:48;21.00;44.70
47174;DHT22;36730;49.036;9.094;2023-04-03T02:37:14;21.00;44.60
47174;DHT22;36730;49.036;9.094;2023-04-03T02:39:39;21.00;44.60
47174;DHT22;36730;49.036;9.094;2023-04-03T02:42:05;21.00;44.60
47174;DHT22;36730;49.036;9.094;2023-04-03T02:44:30;21.10;44.60
47174;DHT22;36730;49.036;9.094;2023-04-03T02:46:55;21.10;44.50
47174;DHT22;36730;49.036;9.094;2023-04-03T02:49:21;21.10;44.50
47174;DHT22;36730;49.036;9.094;2023-04-03T02:51:46;21.10;44.40
47174;DHT22;36730;49.036;9.094;2023-04-03T02:54:12;21.10;44.40
47174;DHT22;36730;49.036;9.094;2023-04-03T02:56:38;21.10;44.40
47174;DHT22;36730;49.036;9.094;2023-04-03T02:59:03;21.10;44.40
47174;DHT22;36730;49.036;9.094;2023-04-03T03:01:30;21.10;44.30
47174;DHT22;36730;49.036;9.094;2023-04-03T03:03:56;21.10;44.30
47174;DHT22;36730;49.036;9.094;2023-04-03T03:06:22;21.20;44.30
47174;DHT22;36730;49.036;9.094;2023-04-03T03:08:48;21.10;44.30
47174;DHT22;36730;49.036;9.094;2023-04-03T03:11:13;21.10;44.50
47174;DHT22;36730;49.036;9.094;2023-04-03T03:13:39;21.10;44.30
47174;DHT22;36730;49.036;9.094;2023-04-03T03:16:05;21.10;44.30
47174;DHT22;36730;49.036;9.094;2023-04-03T03:18:31;21.10;44.70
47174;DHT22;36730;49.036;9.094;2023-04-03T03:20:57;21.10;44.40
47174;DHT22;36730;49.036;9.094;2023-04-03T03:23:23;21.10;44.40
47174;DHT22;36730;49.036;9.094;2023-04-03T03:25:53;21.20;44.80
47174;DHT22;36730;49.036;9.094;2023-04-03T03:28:19;21.10;44.50
47174;DHT22;36730;49.036;9.094;2023-04-03T03:30:45;21.10;44.50
47174;DHT22;36730;49.036;9.094;2023-04-03T03:33:10;21.20;44.70
47174;DHT22;36730;49.036;9.094;2023-04-03T03:35:36;21.20;44.40
47174;DHT22;36730;49.036;9.094;2023-04-03T03:38:01;21.20;44.50
47174;DHT22;36730;49.036;9.094;2023-04-03T03:40:27;21.20;44.60
47174;DHT22;36730;49.036;9.094;2023-04-03T03:42:52;21.20;44.50
47174;DHT22;36730;49.036;9.094;2023-04-03T03:45:18;21.20;45.30
47174;DHT22;36730;49.036;9.094;2023-04-03T03:47:44;21.20;44.70
47174;DHT22;36730;49.036;9.094;2023-04-03T03:50:09;21.20;44.60
47174;DHT22;36730;49.036;9.094;2023-04-03T03:52:35;21.20;44.90
47174;DHT22;36730;49.036;9.094;2023-04-03T03:55:00;21.20;44.60
47174;DHT22;36730;49.036;9.094;2023-04-03T03:57:26;21.20;44.60
47174;DHT22;36730;49.036;9.094;2023-04-03T03:59:54;21.30;45.50
47174;DHT22;36730;49.036;9.094;2023-04-03T04:02:19;21.20;44.60
47174;DHT22;36730;49.036;9.094;2023-04-03T04:04:45;21.30;45.00
47174;DHT22;36730;49.036;9.094;2023-04-03T04:07:11;21.30;45.10
47174;DHT22;36730;49.036;9.094;2023-04-03T04:09:36;21.30;44.90
47174;DHT22;36730;49.036;9.094;2023-04-03T04:12:02;21.30;45.30
47174;DHT22;36730;49.036;9.094;2023-04-03T04:14:27;21.30;45.20
47174;DHT22;36730;49.036;9.094;2023-04-03T04:16:53;21.30;45.50
47174;DHT22;36730;49.036;9.094;2023-04-03T04:19:18;21.30;44.90
47174;DHT22;36730;49.036;9.094;2023-04-03T04:21:44;21.40;45.40
47174;DHT22;36730;49.036;9.094;2023-04-03T04:24:09;21.40;45.30
47174;DHT22;36730;49.036;9.094;2023-04-03T04:26:35;21.40;45.50
47174;DHT22;36730;49.036;9.094;2023-04-03T04:29:00;21.40;45.90
47174;DHT22;36730;49.036;9.094;2023-04-03T04:31:26;21.40;45.80
47174;DHT22;36730;49.036;9.094;2023-04-03T04:33:52;21.40;46.50
47174;DHT22;36730;49.036;9.094;2023-04-03T04:36:17;21.40;45.90
47174;DHT22;36730;49.036;9.094;2023-04-03T04:38:43;21.40;45.90
47174;DHT22;36730;49.036;9.094;2023-04-03T04:41:09;21.40;45.80
47174;DHT22;36730;49.036;9.094;2023-04-03T04:43:34;21.50;46.50
47174;DHT22;36730;49.036;9.094;2023-04-03T04:46:09;21.40;46.40
47174;DHT22;36730;49.036;9.094;2023-04-03T04:48:38;21.50;46.30
47174;DHT22;36730;49.036;9.094;2023-04-03T04:51:03;21.50;46.80
47174;DHT22;36730;49.036;9.094;2023-04-03T04:53:29;21.50;46.60
47174;DHT22;36730;49.036;9.094;2023-04-03T04:55:55;21.50;47.30
47174;DHT22;36730;49.036;9.094;2023-04-03T04:58:20;21.50;46.30
47174;DHT22;36730;49.036;9.094;2023-04-03T05:00:46;21.60;46.80
47174;DHT22;36730;49.036;9.094;2023-04-03T05:03:11;21.50;47.50
47174;DHT22;36730;49.036;9.094;2023-04-03T05:05:37;21.60;47.10
47174;DHT22;36730;49.036;9.094;2023-04-03T05:08:03;21.60;47.20
47174;DHT22;36730;49.036;9.094;2023-04-03T05:10:29;21.60;47.40
47174;DHT22;36730;49.036;9.094;2023-04-03T05:12:54;21.60;47.40
47174;DHT22;36730;49.036;9.094;2023-04-03T05:15:20;21.60;47.30
47174;DHT22;36730;49.036;9.094;2023-04-03T05:17:45;21.60;47.30
47174;DHT22;36730;49.036;9.094;2023-04-03T05:20:11;21.60;47.40
47174;DHT22;36730;49.036;9.094;2023-04-03T05:22:36;21.60;47.30
47174;DHT22;36730;49.036;9.094;2023-04-03T05:25:02;21.60;47.50
47174;DHT22;36730;49.036;9.094;2023-04-03T05:27:28;21.60;47.70
47174;DHT22;36730;49.036;9.094;2023-04-03T05:29:53;21.70;47.70
47174;DHT22;36730;49.036;9.094;2023-04-03T05:32:19;21.60;47.10
47174;DHT22;36730;49.036;9.094;2023-04-03T05:34:45;21.60;47.30
47174;DHT22;36730;49.036;9.094;2023-04-03T05:37:11;21.70;47.90
47174;DHT22;36730;49.036;9.094;2023-04-03T05:39:36;21.70;48.00
47174;DHT22;36730;49.036;9.094;2023-04-03T05:42:03;21.70;47.80
47174;DHT22;36730;49.036;9.094;2023-04-03T05:44:29;21.70;47.60
47174;DHT22;36730;49.036;9.094;2023-04-03T05:46:54;21.70;47.50
47174;DHT22;36730;49.036;9.094;2023-04-03T05:49:20;21.80;47.90
47174;DHT22;36730;49.036;9.094;2023-04-03T05:51:46;21.80;47.70
47174;DHT22;36730;49.036;9.094;2023-04-03T05:54:12;21.80;47.50
47174;DHT22;36730;49.036;9.094;2023-04-03T05:56:38;21.90;47.60
47174;DHT22;36730;49.036;9.094;2023-04-03T05:59:04;21.90;47.60
47174;DHT22;36730;49.036;9.094;2023-04-03T06:01:29;21.90;47.80
47174;DHT22;36730;49.036;9.094;2023-04-03T06:03:56;21.90;47.60
47174;DHT22;36730;49.036;9.094;2023-04-03T06:06:23;21.90;47.50
47174;DHT22;36730;49.036;9.094;2023-04-03T06:08:49;21.90;47.60
47174;DHT22;36730;49.036;9.094;2023-04-03T06:11:15;21.90;49.10
47174;DHT22;36730;49.036;9.094;2023-04-03T06:13:40;21.90;47.90
47174;DHT22;36730;49.036;9.094;2023-04-03T06:16:06;21.90;48.40
47174;DHT22;36730;49.036;9.094;2023-04-03T06:18:31;21.90;47.60
47174;DHT22;36730;49.036;9.094;2023-04-03T06:20:57;21.90;47.90
47174;DHT22;36730;49.036;9.094;2023-04-03T06:23:23;22.00;47.60
47174;DHT22;36730;49.036;9.094;2023-04-03T06:25:48;22.00;47.50
47174;DHT22;36730;49.036;9.094;2023-04-03T06:28:14;22.00;48.20
47174;DHT22;36730;49.036;9.094;2023-04-03T06:30:39;22.00;48.30
47174;DHT22;36730;49.036;9.094;2023-04-03T06:33:05;22.00;48.10
47174;DHT22;36730;49.036;9.094;2023-04-03T06:35:31;22.00;47.60
47174;DHT22;36730;49.036;9.094;2023-04-03T06:37:56;22.00;48.10
47174;DHT22;36730;49.036;9.094;2023-04-03T06:40:23;22.00;48.10
47174;DHT22;36730;49.036;9.094;2023-04-03T06:42:48;22.10;47.70
47174;DHT22;36730;49.036;9.094;2023-04-03T06:45:14;22.10;48.30
47174;DHT22;36730;49.036;9.094;2023-04-03T06:47:39;22.10;47.60
47174;DHT22;36730;49.036;9.094;2023-04-03T06:50:05;22.10;47.40
47174;DHT22;36730;49.036;9.094;2023-04-03T06:52:31;22.10;48.10
47174;DHT22;36730;49.036;9.094;2023-04-03T06:54:57;22.10;46.90
47174;DHT22;36730;49.036;9.094;2023-04-03T06:57:22;22.10;47.50
47174;DHT22;36730;49.036;9.094;2023-04-03T06:59:48;22.10;48.10
47174;DHT22;36730;49.036;9.094;2023-04-03T07:02:13;22.20;47.80
47174;DHT22;36730;49.036;9.094;2023-04-03T07:04:39;22.20;48.30
47174;DHT22;36730;49.036;9.094;2023-04-03T07:07:05;22.20;48.20
47174;DHT22;36730;49.036;9.094;2023-04-03T07:09:31;22.20;48.20
47174;DHT22;36730;49.036;9.094;2023-04-03T07:11:56;22.20;47.90
47174;DHT22;36730;49.036;9.094;2023-04-03T07:14:22;22.30;48.40
47174;DHT22;36730;49.036;9.094;2023-04-03T07:16:47;22.30;47.60
47174;DHT22;36730;49.036;9.094;2023-04-03T07:19:13;22.30;48.00
47174;DHT22;36730;49.036;9.094;2023-04-03T07:21:38;22.30;48.00
47174;DHT22;36730;49.036;9.094;2023-04-03T07:24:04;22.30;48.00
47174;DHT22;36730;49.036;9.094;2023-04-03T07:26:29;22.30;48.20
47174;DHT22;36730;49.036;9.094;2023-04-03T07:28:55;22.30;48.60
47174;DHT22;36730;49.036;9.094;2023-04-03T07:31:21;22.40;48.70
47174;DHT22;36730;49.036;9.094;2023-04-03T07:33:46;22.40;48.50
47174;DHT22;36730;49.036;9.094;2023-04-03T07:36:17;22.40;48.70
47174;DHT22;36730;49.036;9.094;2023-04-03T07:38:43;22.40;48.00
47174;DHT22;36730;49.036;9.094;2023-04-03T07:41:11;22.50;48.20
47174;DHT22;36730;49.036;9.094;2023-04-03T07:43:37;22.50;48.30
47174;DHT22;36730;49.036;9.094;2023-04-03T07:46:04;22.50;48.60
47174;DHT22;36730;49.036;9.094;2023-04-03T07:48:29;22.50;47.90
47174;DHT22;36730;49.036;9.094;2023-04-03T07:50:59;22.50;48.70
47174;DHT22;36730;49.036;9.094;2023-04-03T07:53:24;22.60;48.50
47174;DHT22;36730;49.036;9.094;2023-04-03T07:55:50;22.50;48.90
47174;DHT22;36730;49.036;9.094;2023-04-03T07:58:20;22.60;48.10
47174;DHT22;36730;49.036;9.094;2023-04-03T08:00:46;22.60;48.70
47174;DHT22;36730;49.036;9.094;2023-04-03T08:03:12;22.60;48.90
47174;DHT22;36730;49.036;9.094;2023-04-03T08:05:39;22.60;48.70
47174;DHT22;36730;49.036;9.094;2023-04-03T08:08:05;22.60;49.80
47174;DHT22;36730;49.036;9.094;2023-04-03T08:10:30;22.60;49.40
47174;DHT22;36730;49.036;9.094;2023-04-03T08:12:56;22.60;49.10
47174;DHT22;36730;49.036;9.094;2023-04-03T08:15:22;22.70;49.00
47174;DHT22;36730;49.036;9.094;2023-04-03T08:17:47;22.70;49.20
47174;DHT22;36730;49.036;9.094;2023-04-03T08:20:13;22.70;48.80
47174;DHT22;36730;49.036;9.094;2023-04-03T08:22:38;22.70;49.00
47174;DHT22;36730;49.036;9.094;2023-04-03T08:25:04;22.80;48.80
47174;DHT22;36730;49.036;9.094;2023-04-03T08:27:29;22.80;49.00
47174;DHT22;36730;49.036;9.094;2023-04-03T08:29:56;22.80;48.10
47174;DHT22;36730;49.036;9.094;2023-04-03T08:32:22;22.80;48.50
47174;DHT22;36730;49.036;9.094;2023-04-03T08:34:48;22.80;48.50
47174;DHT22;36730;49.036;9.094;2023-04-03T08:37:15;22.90;49.10
47174;DHT22;36730;49.036;9.094;2023-04-03T08:39:41;22.80;48.40
47174;DHT22;36730;49.036;9.094;2023-04-03T08:42:24;22.90;48.90
47174;DHT22;36730;49.036;9.094;2023-04-03T08:44:54;22.90;47.90
47174;DHT22;36730;49.036;9.094;2023-04-03T08:47:24;23.00;48.00
47174;DHT22;36730;49.036;9.094;2023-04-03T08:49:54;23.00;48.50
47174;DHT22;36730;49.036;9.094;2023-04-03T08:52:28;23.00;48.10
47174;DHT22;36730;49.036;9.094;2023-04-03T08:54:57;23.00;48.30
47174;DHT22;36730;49.036;9.094;2023-04-03T08:57:30;23.00;48.30
47174;DHT22;36730;49.036;9.094;2023-04-03T08:59:57;23.00;47.80
47174;DHT22;36730;49.036;9.094;2023-04-03T09:02:24;23.00;48.20
47174;DHT22;36730;49.036;9.094;2023-04-03T09:04:52;23.00;48.00
47174;DHT22;36730;49.036;9.094;2023-04-03T09:07:21;23.00;48.50
47174;DHT22;36730;49.036;9.094;2023-04-03T09:09:47;23.10;48.30
47174;DHT22;36730;49.036;9.094;2023-04-03T09:12:27;23.10;47.70
47174;DHT22;36730;49.036;9.094;2023-04-03T09:15:16;23.10;47.10
47174;DHT22;36730;49.036;9.094;2023-04-03T09:17:45;23.10;47.40
47174;DHT22;36730;49.036;9.094;2023-04-03T09:22:42;23.20;47.80
47174;DHT22;36730;49.036;9.094;2023-04-03T09:27:37;23.20;48.40
47174;DHT22;36730;49.036;9.094;2023-04-03T09:30:02;23.20;49.10
47174;DHT22;36730;49.036;9.094;2023-04-03T09:32:30;23.30;48.30
47174;DHT22;36730;49.036;9.094;2023-04-03T09:34:56;23.30;48.00
47174;DHT22;36730;49.036;9.094;2023-04-03T09:40:01;23.30;47.70
47174;DHT22;36730;49.036;9.094;2023-04-03T09:42:27;23.30;46.80
47174;DHT22;36730;49.036;9.094;2023-04-03T09:47:32;23.40;47.80
47174;DHT22;36730;49.036;9.094;2023-04-03T09:52:43;23.50;47.90
47174;DHT22;36730;49.036;9.094;2023-04-03T09:57:40;23.50;47.80
47174;DHT22;36730;49.036;9.094;2023-04-03T10:00:10;23.60;47.90
47174;DHT22;36730;49.036;9.094;2023-04-03T10:02:44;23.60;47.80
47174;DHT22;36730;49.036;9.094;2023-04-03T10:08:38;23.70;48.00
47174;DHT22;36730;49.036;9.094;2023-04-03T10:10:40;23.70;48.30
47174;DHT22;36730;49.036;9.094;2023-04-03T10:13:07;23.80;47.80
47174;DHT22;36730;49.036;9.094;2023-04-03T10:15:37;23.80;48.30
47174;DHT22;36730;49.036;9.094;2023-04-03T10:18:06;23.90;48.50
47174;DHT22;36730;49.036;9.094;2023-04-03T10:20:47;23.90;48.00
47174;DHT22;36730;49.036;9.094;2023-04-03T10:23:24;23.90;48.60
47174;DHT22;36730;49.036;9.094;2023-04-03T10:28:20;24.00;48.60
47174;DHT22;36730;49.036;9.094;2023-04-03T10:40:51;24.00;47.70
47174;DHT22;36730;49.036;9.094;2023-04-03T10:53:26;24.10;47.40
47174;DHT22;36730;49.036;9.094;2023-04-03T10:55:56;24.20;48.10
47174;DHT22;36730;49.036;9.094;2023-04-03T10:58:29;24.20;47.10
47174;DHT22;36730;49.036;9.094;2023-04-03T11:00:56;24.20;48.00
47174;DHT22;36730;49.036;9.094;2023-04-03T11:03:29;24.20;47.40
47174;DHT22;36730;49.036;9.094;2023-04-03T11:05:56;24.20;47.50
47174;DHT22;36730;49.036;9.094;2023-04-03T11:08:43;24.20;47.30
47174;DHT22;36730;49.036;9.094;2023-04-03T11:11:11;24.20;47.40
47174;DHT22;36730;49.036;9.094;2023-04-03T11:16:04;24.30;47.80
47174;DHT22;36730;49.036;9.094;2023-04-03T11:18:41;24.20;46.90
47174;DHT22;36730;49.036;9.094;2023-04-03T11:21:16;24.20;47.20
47174;DHT22;36730;49.036;9.094;2023-04-03T11:23:45;24.20;47.50
47174;DHT22;36730;49.036;9.094;2023-04-03T11:26:19;24.20;48.10
47174;DHT22;36730;49.036;9.094;2023-04-03T11:28:46;24.20;48.20
47174;DHT22;36730;49.036;9.094;2023-04-03T11:34:13;24.20;47.80
47174;DHT22;36730;49.036;9.094;2023-04-03T11:36:45;24.20;47.40
47174;DHT22;36730;49.036;9.094;2023-04-03T11:41:48;24.30;47.20
47174;DHT22;36730;49.036;9.094;2023-04-03T11:44:34;24.30;47.30
47174;DHT22;36730;49.036;9.094;2023-04-03T11:47:01;24.30;47.80
47174;DHT22;36730;49.036;9.094;2023-04-03T11:52:11;24.30;47.50
47174;DHT22;36730;49.036;9.094;2023-04-03T11:59:50;24.40;47.40
47174;DHT22;36730;49.036;9.094;2023-04-03T12:02:35;24.40;47.20
47174;DHT22;36730;49.036;9.094;2023-04-03T12:07:56;24.40;47.50
47174;DHT22;36730;49.036;9.094;2023-04-03T12:10:30;24.40;48.10
47174;DHT22;36730;49.036;9.094;2023-04-03T12:12:56;24.40;47.80
47174;DHT22;36730;49.036;9.094;2023-04-03T12:17:51;24.40;47.30
47174;DHT22;36730;49.036;9.094;2023-04-03T12:23:08;24.40;47.90
47174;DHT22;36730;49.036;9.094;2023-04-03T12:25:47;24.40;47.50
47174;DHT22;36730;49.036;9.094;2023-04-03T12:28:15;24.40;47.90
47174;DHT22;36730;49.036;9.094;2023-04-03T12:30:40;24.40;47.90
47174;DHT22;36730;49.036;9.094;2023-04-03T12:35:47;24.40;46.60
47174;DHT22;36730;49.036;9.094;2023-04-03T12:38:33;24.40;46.40
47174;DHT22;36730;49.036;9.094;2023-04-03T12:43:49;24.40;47.40
47174;DHT22;36730;49.036;9.094;2023-04-03T12:46:18;24.40;47.10
47174;DHT22;36730;49.036;9.094;2023-04-03T12:51:14;24.40;47.20
47174;DHT22;36730;49.036;9.094;2023-04-03T12:53:39;24.40;47.50
47174;DHT22;36730;49.036;9.094;2023-04-03T12:56:22;24.40;47.80
47174;DHT22;36730;49.036;9.094;2023-04-03T12:58:49;24.50;47.70
47174;DHT22;36730;49.036;9.094;2023-04-03T13:01:16;24.50;47.90
47174;DHT22;36730;49.036;9.094;2023-04-03T13:03:44;24.50;46.70
47174;DHT22;36730;49.036;9.094;2023-04-03T13:06:13;24.50;47.90
47174;DHT22;36730;49.036;9.094;2023-04-03T13:08:58;24.50;46.70
47174;DHT22;36730;49.036;9.094;2023-04-03T13:11:26;24.60;47.00
47174;DHT22;36730;49.036;9.094;2023-04-03T13:14:34;24.60;46.60
47174;DHT22;36730;49.036;9.094;2023-04-03T13:16:40;24.60;46.90
47174;DHT22;36730;49.036;9.094;2023-04-03T13:19:15;24.60;46.60
47174;DHT22;36730;49.036;9.094;2023-04-03T13:21:41;24.60;47.00
47174;DHT22;36730;49.036;9.094;2023-04-03T13:24:07;24.60;47.20
47174;DHT22;36730;49.036;9.094;2023-04-03T13:26:33;24.70;47.00
47174;DHT22;36730;49.036;9.094;2023-04-03T13:29:00;24.60;46.60
47174;DHT22;36730;49.036;9.094;2023-04-03T13:31:29;24.60;47.20
47174;DHT22;36730;49.036;9.094;2023-04-03T13:36:41;24.70;47.00
47174;DHT22;36730;49.036;9.094;2023-04-03T13:41:44;24.70;46.80
47174;DHT22;36730;49.036;9.094;2023-04-03T13:44:18;24.70;46.90
47174;DHT22;36730;49.036;9.094;2023-04-03T13:46:43;24.70;47.00
47174;DHT22;36730;49.036;9.094;2023-04-03T13:49:22;24.70;47.00
47174;DHT22;36730;49.036;9.094;2023-04-03T13:51:48;24.70;46.90
47174;DHT22;36730;49.036;9.094;2023-04-03T13:57:03;24.70;46.40
47174;DHT22;36730;49.036;9.094;2023-04-03T14:01:55;24.80;46.70
47174;DHT22;36730;49.036;9.094;2023-04-03T14:04:43;24.80;46.70
47174;DHT22;36730;49.036;9.094;2023-04-03T14:07:09;24.80;47.20
47174;DHT22;36730;49.036;9.094;2023-04-03T14:09:35;24.80;46.20
47174;DHT22;36730;49.036;9.094;2023-04-03T14:12:02;24.80;47.10
47174;DHT22;36730;49.036;9.094;2023-04-03T14:14:31;24.80;46.70
47174;DHT22;36730;49.036;9.094;2023-04-03T14:16:58;24.80;46.50
47174;DHT22;36730;49.036;9.094;2023-04-03T14:19:26;24.80;46.60
47174;DHT22;36730;49.036;9.094;2023-04-03T14:21:52;24.90;46.50
47174;DHT22;36730;49.036;9.094;2023-04-03T14:24:18;24.80;46.60
47174;DHT22;36730;49.036;9.094;2023-04-03T14:26:44;24.90;46.20
47174;DHT22;36730;49.036;9.094;2023-04-03T14:29:10;24.80;45.80
47174;DHT22;36730;49.036;9.094;2023-04-03T14:31:36;24.80;46.40
47174;DHT22;36730;49.036;9.094;2023-04-03T14:34:01;24.90;46.30
47174;DHT22;36730;49.036;9.094;2023-04-03T14:36:28;24.80;46.70
47174;DHT22;36730;49.036;9.094;2023-04-03T14:38:54;24.80;46.20
47174;DHT22;36730;49.036;9.094;2023-04-03T14:41:21;24.90;47.10
47174;DHT22;36730;49.036;9.094;2023-04-03T14:43:48;24.90;46.00
47174;DHT22;36730;49.036;9.094;2023-04-03T14:46:28;24.90;45.80
47174;DHT22;36730;49.036;9.094;2023-04-03T14:48:54;24.90;45.80
47174;DHT22;36730;49.036;9.094;2023-04-03T14:51:19;24.90;46.50
47174;DHT22;36730;49.036;9.094;2023-04-03T14:53:45;24.90;46.30
47174;DHT22;36730;49.036;9.094;2023-04-03T14:56:14;24.90;45.50
47174;DHT22;36730;49.036;9.094;2023-04-03T14:58:40;24.90;47.20
47174;DHT22;36730;49.036;9.094;2023-04-03T15:01:05;24.90;47.10
47174;DHT22;36730;49.036;9.094;2023-04-03T15:03:31;24.90;45.70
47174;DHT22;36730;49.036;9.094;2023-04-03T15:05:57;24.90;45.40
47174;DHT22;36730;49.036;9.094;2023-04-03T15:08:24;24.90;45.00
47174;DHT22;36730;49.036;9.094;2023-04-03T15:10:50;24.90;44.60
47174;DHT22;36730;49.036;9.094;2023-04-03T15:13:18;24.90;44.90
47174;DHT22;36730;49.036;9.094;2023-04-03T15:15:44;24.90;44.70
47174;DHT22;36730;49.036;9.094;2023-04-03T15:18:20;24.90;45.40
47174;DHT22;36730;49.036;9.094;2023-04-03T15:20:46;24.90;44.80
47174;DHT22;36730;49.036;9.094;2023-04-03T15:23:13;24.90;45.20
47174;DHT22;36730;49.036;9.094;2023-04-03T15:25:50;24.90;44.50
47174;DHT22;36730;49.036;9.094;2023-04-03T15:28:28;24.90;44.30
47174;DHT22;36730;49.036;9.094;2023-04-03T15:30:55;24.90;44.30
47174;DHT22;36730;49.036;9.094;2023-04-03T15:33:20;24.90;44.20
47174;DHT22;36730;49.036;9.094;2023-04-03T15:35:46;24.80;44.10
47174;DHT22;36730;49.036;9.094;2023-04-03T15:38:12;24.80;44.10
47174;DHT22;36730;49.036;9.094;2023-04-03T15:40:37;24.80;44.20
47174;DHT22;36730;49.036;9.094;2023-04-03T15:43:03;24.80;43.50
47174;DHT22;36730;49.036;9.094;2023-04-03T15:45:29;24.80;44.60
47174;DHT22;36730;49.036;9.094;2023-04-03T15:47:55;24.80;44.50
47174;DHT22;36730;49.036;9.094;2023-04-03T15:50:21;24.70;44.20
47174;DHT22;36730;49.036;9.094;2023-04-03T15:52:48;24.70;44.60
47174;DHT22;36730;49.036;9.094;2023-04-03T15:55:16;24.60;43.80
47174;DHT22;36730;49.036;9.094;2023-04-03T15:57:42;24.60;43.40
47174;DHT22;36730;49.036;9.094;2023-04-03T16:00:07;24.60;43.00
47174;DHT22;36730;49.036;9.094;2023-04-03T16:02:33;24.60;43.20
47174;DHT22;36730;49.036;9.094;2023-04-03T16:04:59;24.60;43.30
47174;DHT22;36730;49.036;9.094;2023-04-03T16:07:24;24.60;43.00
47174;DHT22;36730;49.036;9.094;2023-04-03T16:09:50;24.60;42.90
47174;DHT22;36730;49.036;9.094;2023-04-03T16:12:15;24.60;42.80
47174;DHT22;36730;49.036;9.094;2023-04-03T16:14:41;24.60;42.80
47174;DHT22;36730;49.036;9.094;2023-04-03T16:17:06;24.50;42.70
47174;DHT22;36730;49.036;9.094;2023-04-03T16:19:32;24.50;42.70
47174;DHT22;36730;49.036;9.094;2023-04-03T16:21:57;24.50;42.50
47174;DHT22;36730;49.036;9.094;2023-04-03T16:24:23;24.50;42.80
47174;DHT22;36730;49.036;9.094;2023-04-03T16:26:48;24.50;42.40
47174;DHT22;36730;49.036;9.094;2023-04-03T16:29:14;24.50;42.40
47174;DHT22;36730;49.036;9.094;2023-04-03T16:31:39;24.40;42.20
47174;DHT22;36730;49.036;9.094;2023-04-03T16:34:05;24.40;42.40
47174;DHT22;36730;49.036;9.094;2023-04-03T16:36:30;24.40;42.20
47174;DHT22;36730;49.036;9.094;2023-04-03T16:38:56;24.40;42.30
47174;DHT22;36730;49.036;9.094;2023-04-03T16:41:21;24.40;42.20
47174;DHT22;36730;49.036;9.094;2023-04-03T16:43:47;24.40;42.20
47174;DHT22;36730;49.036;9.094;2023-04-03T16:46:12;24.40;42.30
47174;DHT22;36730;49.036;9.094;2023-04-03T16:48:38;24.40;42.20
47174;DHT22;36730;49.036;9.094;2023-04-03T16:51:03;24.30;42.10
47174;DHT22;36730;49.036;9.094;2023-04-03T16:53:28;24.30;42.00
47174;DHT22;36730;49.036;9.094;2023-04-03T16:55:56;24.30;41.80